Time;durP1;ratioP1;P1;durP2;ratioP2;P2;SDS_P1;SDS_P2;PMS_P1;PMS_P2;Temp;Humidity;BMP_temperature;BMP_pressure;BME280_temperature;BME280_humidity;BME280_pressure;Samples;Min_cycle;Max_cycle;Signal;HPM_P1;HPM_P2
2021/12/23 00:01:16;;;;;;;0.10;0.10;;;;;;;;;;5048238;28;20086;-75
2021/12/23 00:03:42;;;;;;;0.73;0.73;;;;;;;;;;5043623;28;20025;-76
2021/12/23 00:06:08;;;;;;;1.03;0.67;;;;;;;;;;5042188;28;20041;-75
2021/12/23 00:08:34;;;;;;;0.20;0.20;;;;;;;;;;5043762;28;20033;-76
2021/12/23 00:11:00;;;;;;;0.20;0.20;;;;;;;;;;5042767;28;20048;-76
2021/12/23 00:13:26;;;;;;;0.10;0.10;;;;;;;;;;5041898;28;20032;-76
2021/12/23 00:23:49;;;;;;;0.08;0.08;;;;;;;;;;5043200;28;20482;-75
2021/12/23 00:26:16;;;;;;;2.13;2.03;;;;;;;;;;5043860;28;20111;-75
2021/12/23 00:28:42;;;;;;;0.10;0.10;;;;;;;;;;5042105;28;20053;-76
2021/12/23 00:31:08;;;;;;;2.92;0.68;;;;;;;;;;5047490;28;20040;-76
2021/12/23 00:33:36;;;;;;;0.10;0.10;;;;;;;;;;5042152;28;20036;-75
2021/12/23 00:36:04;;;;;;;0.10;0.10;;;;;;;;;;5047433;28;20782;-76
2021/12/23 00:38:34;;;;;;;0.20;0.20;;;;;;;;;;5042466;28;20028;-76
2021/12/23 00:41:02;;;;;;;1.25;0.85;;;;;;;;;;5042987;28;20087;-76
2021/12/23 00:43:29;;;;;;;0.20;0.20;;;;;;;;;;5043622;28;20063;-76
2021/12/23 00:45:55;;;;;;;;;;;;;;;;;;5047026;28;20033;-75
2021/12/23 00:48:21;;;;;;;0.10;0.10;;;;;;;;;;5045699;28;19923;-75
2021/12/23 00:50:48;;;;;;;0.20;0.20;;;;;;;;;;5040799;28;20279;-77
2021/12/23 00:53:18;;;;;;;0.20;0.20;;;;;;;;;;5043230;28;20420;-77
2021/12/23 00:55:51;;;;;;;0.20;0.20;;;;;;;;;;5041143;28;20017;-76
2021/12/23 00:58:17;;;;;;;1.25;0.55;;;;;;;;;;5042257;28;20029;-76
2021/12/23 01:00:43;;;;;;;0.10;0.10;;;;;;;;;;5039740;28;20021;-76
2021/12/23 01:03:09;;;;;;;0.10;0.10;;;;;;;;;;5025636;28;20074;-76
2021/12/23 01:05:35;;;;;;;0.27;0.27;;;;;;;;;;5044637;28;20024;-76
2021/12/23 01:08:01;;;;;;;0.30;0.30;;;;;;;;;;5044053;28;20139;-76
2021/12/23 01:10:27;;;;;;;0.32;0.32;;;;;;;;;;5039001;28;20611;-77
2021/12/23 01:13:00;;;;;;;0.10;0.10;;;;;;;;;;5044659;28;20115;-76
2021/12/23 01:15:49;;;;;;;0.20;0.20;;;;;;;;;;5040083;28;20047;-76
2021/12/23 01:18:14;;;;;;;0.30;0.20;;;;;;;;;;5039094;28;20041;-76
2021/12/23 01:21:03;;;;;;;0.10;0.10;;;;;;;;;;5039295;28;20039;-75
2021/12/23 01:23:29;;;;;;;2.17;0.75;;;;;;;;;;5037777;28;20029;-75
2021/12/23 01:25:55;;;;;;;0.83;0.37;;;;;;;;;;5040414;28;20789;-75
2021/12/23 01:28:21;;;;;;;0.37;0.37;;;;;;;;;;5022762;28;20581;-75
2021/12/23 01:30:48;;;;;;;0.35;0.35;;;;;;;;;;5042549;28;20036;-76
2021/12/23 01:33:14;;;;;;;0.10;0.10;;;;;;;;;;5039374;28;20116;-76
2021/12/23 01:35:41;;;;;;;0.10;0.10;;;;;;;;;;5042431;28;20036;-76
2021/12/23 01:38:07;;;;;;;;;;;;;;;;;;5039169;28;20104;-76
2021/12/23 01:40:33;;;;;;;0.20;0.20;;;;;;;;;;5039154;28;20123;-76
2021/12/23 01:42:59;;;;;;;0.10;0.10;;;;;;;;;;5045860;28;20532;-76
2021/12/23 01:45:27;;;;;;;0.50;0.50;;;;;;;;;;5046297;28;20025;-76
2021/12/23 01:47:53;;;;;;;0.50;0.50;;;;;;;;;;5039773;28;20131;-77
2021/12/23 01:50:24;;;;;;;0.20;0.20;;;;;;;;;;5040264;28;20029;-76
2021/12/23 01:52:50;;;;;;;0.10;0.10;;;;;;;;;;5041650;28;20041;-76
2021/12/23 01:55:16;;;;;;;0.30;0.30;;;;;;;;;;5042159;28;20033;-76
2021/12/23 01:57:43;;;;;;;0.88;0.50;;;;;;;;;;5040242;28;20449;-76
2021/12/23 02:00:09;;;;;;;;;;;;;;;;;;5043886;28;20029;-77
2021/12/23 02:02:35;;;;;;;0.10;0.10;;;;;;;;;;5045429;28;20406;-76
2021/12/23 02:05:01;;;;;;;0.10;0.10;;;;;;;;;;5038353;28;20033;-76
2021/12/23 02:07:27;;;;;;;0.95;0.95;;;;;;;;;;5049512;28;20040;-77
2021/12/23 02:09:55;;;;;;;0.45;0.45;;;;;;;;;;5043000;28;20082;-77
2021/12/23 02:12:22;;;;;;;0.10;0.10;;;;;;;;;;5043354;28;20586;-77
2021/12/23 02:14:48;;;;;;;0.20;0.20;;;;;;;;;;5037487;28;20052;-76
2021/12/23 02:17:14;;;;;;;0.10;0.10;;;;;;;;;;5042437;28;20028;-75
2021/12/23 02:19:40;;;;;;;0.25;0.25;;;;;;;;;;5043297;28;20158;-76
2021/12/23 02:22:06;;;;;;;0.25;0.25;;;;;;;;;;5050286;28;20450;-76
2021/12/23 02:24:32;;;;;;;0.10;0.10;;;;;;;;;;5044485;28;20036;-76
2021/12/23 02:26:58;;;;;;;0.17;0.17;;;;;;;;;;5046184;28;20025;-75
2021/12/23 02:29:24;;;;;;;0.20;0.20;;;;;;;;;;5046812;28;20036;-76
2021/12/23 02:31:51;;;;;;;0.30;0.30;;;;;;;;;;5043395;28;20060;-75
2021/12/23 02:34:18;;;;;;;0.10;0.10;;;;;;;;;;5051129;28;20419;-76
2021/12/23 02:36:56;;;;;;;0.30;0.30;;;;;;;;;;5044947;28;20052;-75
2021/12/23 02:39:23;;;;;;;1.98;0.50;;;;;;;;;;5044243;28;20103;-76
2021/12/23 02:41:49;;;;;;;0.00;0.00;;;;;;;;;;5043062;28;20044;-76
2021/12/23 02:44:16;;;;;;;0.20;0.20;;;;;;;;;;5043730;28;20045;-76
2021/12/23 02:46:42;;;;;;;0.75;0.55;;;;;;;;;;5043962;28;20290;-76
2021/12/23 02:49:08;;;;;;;0.20;0.20;;;;;;;;;;5050124;28;20052;-76
2021/12/23 02:51:34;;;;;;;0.10;0.10;;;;;;;;;;5048170;28;20025;-75
2021/12/23 02:54:00;;;;;;;0.10;0.10;;;;;;;;;;5042518;28;20037;-76
2021/12/23 02:56:26;;;;;;;0.45;0.45;;;;;;;;;;5041666;28;20029;-75
2021/12/23 02:58:52;;;;;;;0.20;0.20;;;;;;;;;;5044933;28;20084;-75
2021/12/23 03:01:19;;;;;;;0.10;0.10;;;;;;;;;;5045109;28;20504;-76
2021/12/23 03:03:46;;;;;;;0.10;0.10;;;;;;;;;;5043460;28;20503;-75
2021/12/23 03:06:12;;;;;;;0.45;0.30;;;;;;;;;;5043678;28;20120;-75
2021/12/23 03:08:43;;;;;;;0.17;0.17;;;;;;;;;;5042681;28;20049;-75
2021/12/23 03:11:10;;;;;;;0.10;0.10;;;;;;;;;;5041119;28;20146;-75
2021/12/23 03:13:36;;;;;;;0.10;0.10;;;;;;;;;;5043111;28;20522;-76
2021/12/23 03:16:03;;;;;;;4.45;0.50;;;;;;;;;;5042755;28;20035;-75
2021/12/23 03:18:29;;;;;;;0.20;0.20;;;;;;;;;;5041413;28;20033;-75
2021/12/23 03:20:56;;;;;;;2.10;0.70;;;;;;;;;;5040180;28;20774;-75
2021/12/23 03:23:22;;;;;;;3.35;1.08;;;;;;;;;;5040971;28;20032;-75
2021/12/23 03:25:48;;;;;;;0.20;0.20;;;;;;;;;;5040923;28;20550;-76
2021/12/23 03:28:14;;;;;;;0.10;0.10;;;;;;;;;;5043636;28;20041;-75
2021/12/23 03:30:41;;;;;;;0.20;0.20;;;;;;;;;;5041709;28;20028;-75
2021/12/23 03:33:07;;;;;;;0.10;0.10;;;;;;;;;;5041404;28;20024;-76
2021/12/23 03:35:33;;;;;;;2.03;0.67;;;;;;;;;;5041100;28;20033;-75
2021/12/23 03:37:59;;;;;;;0.10;0.10;;;;;;;;;;5040270;28;20628;-75
2021/12/23 03:40:25;;;;;;;0.10;0.10;;;;;;;;;;5040175;28;20033;-75
2021/12/23 03:42:51;;;;;;;0.80;0.35;;;;;;;;;;5044220;28;20060;-75
2021/12/23 03:45:17;;;;;;;0.20;0.20;;;;;;;;;;5041571;28;20546;-76
2021/12/23 03:47:48;;;;;;;0.30;0.30;;;;;;;;;;5041776;28;20025;-77
2021/12/23 03:50:16;;;;;;;0.20;0.20;;;;;;;;;;5042571;28;20056;-77
2021/12/23 03:52:43;;;;;;;0.10;0.10;;;;;;;;;;5041607;28;20033;-77
2021/12/23 03:55:09;;;;;;;0.22;0.22;;;;;;;;;;5034559;28;20029;-76
2021/12/23 03:57:35;;;;;;;0.20;0.20;;;;;;;;;;5043839;28;20579;-75
2021/12/23 04:00:01;;;;;;;0.10;0.10;;;;;;;;;;5046816;28;20074;-76
2021/12/23 04:02:28;;;;;;;0.10;0.10;;;;;;;;;;5047071;28;20033;-75
2021/12/23 04:04:54;;;;;;;0.10;0.10;;;;;;;;;;5042280;28;20021;-75
2021/12/23 04:07:20;;;;;;;0.73;0.63;;;;;;;;;;5043825;28;20135;-76
2021/12/23 04:09:46;;;;;;;0.10;0.10;;;;;;;;;;5041325;28;20099;-75
2021/12/23 04:12:12;;;;;;;0.10;0.10;;;;;;;;;;5028388;28;20116;-76
2021/12/23 04:14:38;;;;;;;0.20;0.20;;;;;;;;;;5041935;28;20103;-75
2021/12/23 04:17:04;;;;;;;0.10;0.10;;;;;;;;;;5042419;28;20083;-76
2021/12/23 04:19:31;;;;;;;0.17;0.17;;;;;;;;;;5044225;28;20107;-75
2021/12/23 04:21:58;;;;;;;0.10;0.10;;;;;;;;;;5024784;28;20454;-75
2021/12/23 04:24:24;;;;;;;0.20;0.20;;;;;;;;;;5040445;28;20075;-74
2021/12/23 04:26:51;;;;;;;0.10;0.10;;;;;;;;;;5046759;28;20289;-76
2021/12/23 04:29:17;;;;;;;0.50;0.50;;;;;;;;;;5044854;28;20124;-77
2021/12/23 04:31:43;;;;;;;0.10;0.10;;;;;;;;;;5040892;28;20056;-76
2021/12/23 04:34:09;;;;;;;0.20;0.20;;;;;;;;;;5043017;28;20037;-76
2021/12/23 04:36:35;;;;;;;0.10;0.10;;;;;;;;;;5042989;28;20033;-75
2021/12/23 04:39:01;;;;;;;0.13;0.13;;;;;;;;;;5045935;28;20104;-75
2021/12/23 04:41:28;;;;;;;0.10;0.10;;;;;;;;;;5040009;28;20025;-75
2021/12/23 04:43:54;;;;;;;;;;;;;;;;;;5041680;28;20045;-75
2021/12/23 04:46:20;;;;;;;0.10;0.10;;;;;;;;;;5042484;28;19920;-75
2021/12/23 04:48:47;;;;;;;2.72;1.70;;;;;;;;;;5040316;28;20048;-75
2021/12/23 04:51:13;;;;;;;;;;;;;;;;;;5038719;28;20112;-76
2021/12/23 04:53:39;;;;;;;0.10;0.10;;;;;;;;;;5039285;28;19917;-75
2021/12/23 04:56:05;;;;;;;0.17;0.17;;;;;;;;;;5039123;28;20040;-75
2021/12/23 04:58:31;;;;;;;0.10;0.10;;;;;;;;;;5040839;28;20287;-75
2021/12/23 05:00:57;;;;;;;0.30;0.30;;;;;;;;;;5040118;28;20078;-75
2021/12/23 05:03:24;;;;;;;0.10;0.10;;;;;;;;;;5040988;28;20027;-75
2021/12/23 05:05:51;;;;;;;0.10;0.10;;;;;;;;;;5042425;28;20025;-75
2021/12/23 05:08:17;;;;;;;0.10;0.10;;;;;;;;;;5039217;28;20063;-75
2021/12/23 05:10:43;;;;;;;0.10;0.10;;;;;;;;;;5039232;28;20035;-76
2021/12/23 05:13:10;;;;;;;0.20;0.20;;;;;;;;;;5040562;28;20075;-76
2021/12/23 05:15:36;;;;;;;0.10;0.10;;;;;;;;;;5043590;28;20029;-76
2021/12/23 05:18:02;;;;;;;0.10;0.10;;;;;;;;;;5026848;28;20028;-76
2021/12/23 05:20:28;;;;;;;0.10;0.10;;;;;;;;;;5042534;28;20091;-76
2021/12/23 05:22:54;;;;;;;0.10;0.10;;;;;;;;;;5040650;28;20029;-75
2021/12/23 05:25:20;;;;;;;0.93;0.85;;;;;;;;;;5022681;28;20112;-75
2021/12/23 05:27:48;;;;;;;0.30;0.30;;;;;;;;;;5037986;28;20123;-76
2021/12/23 05:30:15;;;;;;;0.10;0.10;;;;;;;;;;5044698;28;20451;-74
2021/12/23 05:32:42;;;;;;;0.10;0.10;;;;;;;;;;5039137;28;20036;-74
2021/12/23 05:35:09;;;;;;;0.15;0.15;;;;;;;;;;5040333;28;20057;-75
2021/12/23 05:37:35;;;;;;;0.10;0.10;;;;;;;;;;5039444;28;20025;-76
2021/12/23 05:40:02;;;;;;;0.10;0.10;;;;;;;;;;5044436;28;20041;-76
2021/12/23 05:42:28;;;;;;;0.10;0.10;;;;;;;;;;5039646;28;20099;-75
2021/12/23 05:44:54;;;;;;;0.52;0.52;;;;;;;;;;5041273;28;20053;-76
2021/12/23 05:47:20;;;;;;;0.10;0.10;;;;;;;;;;5040666;28;20032;-75
2021/12/23 05:49:46;;;;;;;0.20;0.20;;;;;;;;;;5038659;28;20058;-75
2021/12/23 05:52:12;;;;;;;0.10;0.10;;;;;;;;;;5041519;28;20033;-75
2021/12/23 05:54:38;;;;;;;0.17;0.17;;;;;;;;;;5044814;28;20028;-76
2021/12/23 05:57:04;;;;;;;0.20;0.20;;;;;;;;;;5024164;28;20032;-76
2021/12/23 05:59:31;;;;;;;0.10;0.10;;;;;;;;;;5045217;28;20032;-76
2021/12/23 06:01:58;;;;;;;0.20;0.20;;;;;;;;;;5040755;28;20893;-76
2021/12/23 06:04:24;;;;;;;0.10;0.10;;;;;;;;;;5043920;28;20029;-78
2021/12/23 06:06:50;;;;;;;0.32;0.32;;;;;;;;;;5047984;28;20538;-77
2021/12/23 06:09:16;;;;;;;0.10;0.10;;;;;;;;;;5033986;28;20587;-76
2021/12/23 06:11:42;;;;;;;0.10;0.10;;;;;;;;;;5042868;28;20097;-77
2021/12/23 06:14:08;;;;;;;0.13;0.13;;;;;;;;;;5043476;28;20521;-75
2021/12/23 06:16:34;;;;;;;0.17;0.17;;;;;;;;;;5043999;28;20074;-76
2021/12/23 06:19:00;;;;;;;0.20;0.20;;;;;;;;;;5045532;28;20045;-76
2021/12/23 06:21:29;;;;;;;0.30;0.30;;;;;;;;;;5042337;28;20545;-76
2021/12/23 06:23:55;;;;;;;0.10;0.10;;;;;;;;;;5042721;28;20040;-76
2021/12/23 06:26:22;;;;;;;0.10;0.10;;;;;;;;;;5041580;28;20029;-76
2021/12/23 06:28:48;;;;;;;0.32;0.32;;;;;;;;;;5042623;28;20087;-75
2021/12/23 06:31:14;;;;;;;0.52;0.38;;;;;;;;;;5045368;28;20040;-76
2021/12/23 06:33:40;;;;;;;0.10;0.10;;;;;;;;;;5044877;28;20029;-75
2021/12/23 06:36:06;;;;;;;0.10;0.10;;;;;;;;;;5043407;28;20098;-75
2021/12/23 06:38:35;;;;;;;0.10;0.10;;;;;;;;;;5044110;28;20039;-75
2021/12/23 06:41:01;;;;;;;0.10;0.10;;;;;;;;;;5042425;28;20150;-75
2021/12/23 06:43:27;;;;;;;0.20;0.20;;;;;;;;;;5041846;28;20056;-76
2021/12/23 06:45:53;;;;;;;0.40;0.40;;;;;;;;;;5042541;28;20268;-76
2021/12/23 06:48:19;;;;;;;0.10;0.10;;;;;;;;;;5043575;28;20037;-75
2021/12/23 06:50:45;;;;;;;0.40;0.40;;;;;;;;;;5043626;28;20128;-75
2021/12/23 06:53:14;;;;;;;0.00;0.00;;;;;;;;;;5041233;28;20081;-75
2021/12/23 06:55:40;;;;;;;0.10;0.10;;;;;;;;;;5041411;28;20057;-76
2021/12/23 06:58:07;;;;;;;0.10;0.10;;;;;;;;;;5047551;28;20500;-77
2021/12/23 07:00:33;;;;;;;0.27;0.27;;;;;;;;;;5045731;28;20052;-76
2021/12/23 07:02:59;;;;;;;0.10;0.10;;;;;;;;;;5049297;28;20378;-75
2021/12/23 07:05:25;;;;;;;0.20;0.20;;;;;;;;;;5044130;28;20021;-75
2021/12/23 07:10:18;;;;;;;0.10;0.10;;;;;;;;;;5051688;28;20044;-77
2021/12/23 07:12:44;;;;;;;0.10;0.10;;;;;;;;;;5046133;28;20028;-78
2021/12/23 07:15:10;;;;;;;0.10;0.10;;;;;;;;;;5047181;28;20021;-78
2021/12/23 07:17:37;;;;;;;0.10;0.10;;;;;;;;;;5048476;28;20165;-79
2021/12/23 07:20:04;;;;;;;0.20;0.20;;;;;;;;;;5044343;28;20029;-78
2021/12/23 07:22:30;;;;;;;0.05;0.05;;;;;;;;;;5045941;28;20094;-78
2021/12/23 07:24:56;;;;;;;0.10;0.10;;;;;;;;;;5034390;28;20033;-77
2021/12/23 07:27:22;;;;;;;0.10;0.10;;;;;;;;;;5047607;28;20036;-79
2021/12/23 07:29:48;;;;;;;0.20;0.20;;;;;;;;;;5046878;28;20040;-78
2021/12/23 07:32:14;;;;;;;0.10;0.10;;;;;;;;;;5044950;28;20036;-76
2021/12/23 07:34:42;;;;;;;0.22;0.22;;;;;;;;;;5046072;28;20033;-79
2021/12/23 07:37:09;;;;;;;0.10;0.10;;;;;;;;;;5048699;28;20021;-78
2021/12/23 07:39:36;;;;;;;0.20;0.20;;;;;;;;;;5047265;28;20065;-81
2021/12/23 07:42:02;;;;;;;0.47;0.30;;;;;;;;;;5046603;28;20028;-79
2021/12/23 07:44:29;;;;;;;0.40;0.40;;;;;;;;;;5045043;28;20067;-78
2021/12/23 07:46:55;;;;;;;0.33;0.33;;;;;;;;;;5057583;28;20029;-78
2021/12/23 07:49:21;;;;;;;0.10;0.10;;;;;;;;;;5048698;28;20245;-79
2021/12/23 07:51:47;;;;;;;0.10;0.10;;;;;;;;;;5046985;28;20075;-80
2021/12/23 07:54:13;;;;;;;0.23;0.23;;;;;;;;;;5044856;28;20076;-79
2021/12/23 07:56:39;;;;;;;0.10;0.10;;;;;;;;;;5042394;28;20052;-80
2021/12/23 07:59:05;;;;;;;0.10;0.10;;;;;;;;;;5042862;28;20048;-80
2021/12/23 08:01:31;;;;;;;0.10;0.10;;;;;;;;;;5042715;28;20407;-80
2021/12/23 08:03:57;;;;;;;0.10;0.10;;;;;;;;;;5045691;28;20048;-80
2021/12/23 08:06:23;;;;;;;0.10;0.10;;;;;;;;;;5049045;28;20100;-80
2021/12/23 08:08:49;;;;;;;0.73;0.73;;;;;;;;;;5045169;28;20036;-80
2021/12/23 08:11:15;;;;;;;0.10;0.10;;;;;;;;;;5037767;28;20063;-80
2021/12/23 08:13:41;;;;;;;0.10;0.10;;;;;;;;;;5044790;28;20115;-80
2021/12/23 08:16:07;;;;;;;0.20;0.20;;;;;;;;;;5044658;28;20113;-83
2021/12/23 08:18:33;;;;;;;0.23;0.23;;;;;;;;;;5039374;28;20033;-83
2021/12/23 08:21:01;;;;;;;0.30;0.30;;;;;;;;;;5043670;28;20112;-83
2021/12/23 08:23:27;;;;;;;0.20;0.20;;;;;;;;;;5043558;28;20037;-83
2021/12/23 08:25:54;;;;;;;0.10;0.10;;;;;;;;;;5041546;28;20128;-83
2021/12/23 08:28:20;;;;;;;0.20;0.20;;;;;;;;;;5046133;28;20295;-83
2021/12/23 08:30:46;;;;;;;0.10;0.10;;;;;;;;;;5045597;28;20049;-83
2021/12/23 08:33:12;;;;;;;0.20;0.20;;;;;;;;;;5048050;28;20278;-83
2021/12/23 08:35:38;;;;;;;0.30;0.30;;;;;;;;;;5034115;28;20083;-83
2021/12/23 08:38:05;;;;;;;0.20;0.20;;;;;;;;;;5042240;28;20112;-83
2021/12/23 08:40:31;;;;;;;;;;;;;;;;;;5043026;28;20306;-84
2021/12/23 08:42:58;;;;;;;0.20;0.20;;;;;;;;;;5044058;28;20344;-83
2021/12/23 08:45:25;;;;;;;0.10;0.10;;;;;;;;;;5043139;28;20407;-83
2021/12/23 08:47:54;;;;;;;0.10;0.10;;;;;;;;;;5043252;28;20041;-83
2021/12/23 08:50:21;;;;;;;0.22;0.22;;;;;;;;;;5042422;28;20043;-84
2021/12/23 08:52:47;;;;;;;0.20;0.20;;;;;;;;;;5035210;28;20037;-84
2021/12/23 08:55:13;;;;;;;0.27;0.27;;;;;;;;;;5045158;28;20880;-82
2021/12/23 08:57:40;;;;;;;0.20;0.20;;;;;;;;;;5042362;28;20032;-83
2021/12/23 09:00:08;;;;;;;0.20;0.20;;;;;;;;;;5044341;28;20029;-82
2021/12/23 09:02:34;;;;;;;0.10;0.10;;;;;;;;;;5042656;28;20029;-82
2021/12/23 09:05:00;;;;;;;0.10;0.10;;;;;;;;;;5039362;28;20028;-83
2021/12/23 09:07:26;;;;;;;0.10;0.10;;;;;;;;;;5042179;28;20025;-82
2021/12/23 09:09:53;;;;;;;0.10;0.10;;;;;;;;;;5043248;28;20040;-83
2021/12/23 09:12:19;;;;;;;0.13;0.13;;;;;;;;;;5042330;28;20818;-82
2021/12/23 09:14:46;;;;;;;0.17;0.17;;;;;;;;;;5042078;28;20063;-82
2021/12/23 09:17:12;;;;;;;0.10;0.10;;;;;;;;;;5041452;28;20021;-82
2021/12/23 09:19:38;;;;;;;0.10;0.10;;;;;;;;;;5041187;28;20039;-82
2021/12/23 09:22:05;;;;;;;1051.35;547.47;;;;;;;;;;5039389;28;20021;-82
2021/12/23 09:24:32;;;;;;;0.20;0.20;;;;;;;;;;5041543;28;20043;-82
2021/12/23 09:27:13;;;;;;;;;;;;;;;;;;5042888;28;20087;-83
2021/12/23 09:34:55;;;;;;;0.20;0.20;;;;;;;;;;5039924;28;20416;-83
2021/12/23 09:37:21;;;;;;;0.20;0.20;;;;;;;;;;5041526;28;20021;-82
2021/12/23 09:39:54;;;;;;;0.30;0.30;;;;;;;;;;5045129;28;20028;-83
2021/12/23 09:42:24;;;;;;;0.30;0.30;;;;;;;;;;5044439;28;20021;-82
2021/12/23 09:44:50;;;;;;;0.30;0.30;;;;;;;;;;5045496;28;20049;-82
2021/12/23 09:47:17;;;;;;;0.30;0.30;;;;;;;;;;5044045;28;20033;-82
2021/12/23 09:49:43;;;;;;;0.30;0.30;;;;;;;;;;5044364;28;20071;-82
2021/12/23 09:52:09;;;;;;;0.30;0.30;;;;;;;;;;5046629;28;20487;-82
2021/12/23 09:54:37;;;;;;;0.30;0.30;;;;;;;;;;5043748;28;20864;-82
2021/12/23 09:57:03;;;;;;;0.30;0.30;;;;;;;;;;5046482;28;20033;-82
2021/12/23 09:59:29;;;;;;;0.30;0.30;;;;;;;;;;5043792;28;20021;-82
2021/12/23 10:01:56;;;;;;;0.30;0.30;;;;;;;;;;5042383;28;20068;-82
2021/12/23 10:04:22;;;;;;;0.30;0.30;;;;;;;;;;5047687;28;20043;-83
2021/12/23 10:06:50;;;;;;;0.30;0.30;;;;;;;;;;5048317;28;20037;-82
2021/12/23 10:09:35;;;;;;;0.30;0.30;;;;;;;;;;5045945;28;20287;-83
2021/12/23 10:31:44;;;;;;;0.30;0.30;;;;;;;;;;5002811;28;20041;-82
2021/12/23 10:39:35;;;;;;;0.20;0.20;;;;;;;;;;4990298;28;20081;-82
2021/12/23 10:42:11;;;;;;;0.30;0.30;;;;;;;;;;4997364;28;20101;-82
2021/12/23 10:44:37;;;;;;;0.20;0.20;;;;;;;;;;5001895;28;20201;-82
2021/12/23 10:47:06;;;;;;;0.20;0.20;;;;;;;;;;5002576;28;20073;-82
2021/12/23 10:49:41;;;;;;;0.20;0.20;;;;;;;;;;5002036;28;20935;-82
2021/12/23 10:52:14;;;;;;;0.30;0.30;;;;;;;;;;5041662;28;20043;-82
2021/12/23 11:00:22;;;;;;;0.30;0.30;;;;;;;;;;5044406;28;20407;-82
2021/12/23 11:03:09;;;;;;;0.20;0.20;;;;;;;;;;5042108;28;20025;-82
2021/12/23 11:05:45;;;;;;;0.30;0.30;;;;;;;;;;5032729;28;20068;-82
2021/12/23 11:11:23;;;;;;;0.22;0.22;;;;;;;;;;5044248;28;20074;-82
2021/12/23 11:40:56;;;;;;;0.30;0.30;;;;;;;;;;5044956;28;20071;-82
2021/12/23 11:43:33;;;;;;;0.22;0.22;;;;;;;;;;5049040;28;20119;-84
2021/12/23 11:46:00;;;;;;;;;;;;;;;;;;5050603;28;20826;-83
2021/12/23 11:48:26;;;;;;;0.20;0.20;;;;;;;;;;5046692;28;19920;-84
2021/12/23 11:51:06;;;;;;;0.20;0.20;;;;;;;;;;5046699;28;20447;-85
2021/12/23 11:53:33;;;;;;;0.20;0.20;;;;;;;;;;5046350;28;20029;-85
2021/12/23 11:56:00;;;;;;;0.20;0.20;;;;;;;;;;5025992;28;20087;-85
2021/12/23 11:58:26;;;;;;;;;;;;;;;;;;5046275;28;20029;-85
2021/12/23 12:01:02;;;;;;;0.20;0.20;;;;;;;;;;5039371;28;20287;-84
2021/12/23 12:03:28;;;;;;;0.25;0.25;;;;;;;;;;5045687;28;20112;-84
2021/12/23 12:06:12;;;;;;;0.20;0.20;;;;;;;;;;5040189;28;20025;-84
2021/12/23 12:08:38;;;;;;;0.20;0.20;;;;;;;;;;5042615;28;20307;-86
2021/12/23 12:11:16;;;;;;;0.20;0.20;;;;;;;;;;5040826;28;20026;-86
2021/12/23 12:13:43;;;;;;;0.25;0.25;;;;;;;;;;5041761;28;20405;-85
2021/12/23 12:16:27;;;;;;;0.20;0.20;;;;;;;;;;5045837;28;20040;-86
2021/12/23 12:18:53;;;;;;;0.20;0.20;;;;;;;;;;5048382;28;20271;-86
2021/12/23 12:21:24;;;;;;;0.20;0.20;;;;;;;;;;5044338;28;20032;-85
2021/12/23 12:24:06;;;;;;;0.20;0.20;;;;;;;;;;5042373;28;20492;-84
2021/12/23 12:26:34;;;;;;;0.30;0.30;;;;;;;;;;5042210;28;20112;-85
2021/12/23 12:29:04;;;;;;;0.30;0.30;;;;;;;;;;5044214;28;20048;-84
2021/12/23 12:31:38;;;;;;;0.20;0.20;;;;;;;;;;5042168;28;20028;-84
2021/12/23 12:34:07;;;;;;;0.20;0.20;;;;;;;;;;5044419;28;20930;-85
2021/12/23 12:36:47;;;;;;;0.20;0.20;;;;;;;;;;5043583;28;20078;-85
2021/12/23 12:39:15;;;;;;;0.20;0.20;;;;;;;;;;5043220;28;20086;-85
2021/12/23 12:41:41;;;;;;;0.20;0.20;;;;;;;;;;5043368;28;20102;-85
2021/12/23 12:45:00;;;;;;;0.30;0.30;;;;;;;;;;5042406;28;20056;-85
2021/12/23 12:47:19;;;;;;;0.20;0.20;;;;;;;;;;5033565;28;20094;-85
2021/12/23 12:49:50;;;;;;;0.20;0.20;;;;;;;;;;5042370;28;20053;-85
2021/12/23 12:52:17;;;;;;;0.20;0.20;;;;;;;;;;5043119;28;20036;-85
2021/12/23 12:54:57;;;;;;;0.20;0.20;;;;;;;;;;5043023;28;20024;-84
2021/12/23 12:57:25;;;;;;;0.20;0.20;;;;;;;;;;5041938;28;20036;-85
2021/12/23 12:59:52;;;;;;;0.20;0.20;;;;;;;;;;5042956;28;20412;-85
2021/12/23 13:02:26;;;;;;;0.20;0.20;;;;;;;;;;5041456;28;20025;-86
2021/12/23 13:04:59;;;;;;;0.20;0.20;;;;;;;;;;5041133;28;20063;-86
2021/12/23 13:07:28;;;;;;;0.20;0.20;;;;;;;;;;5040066;28;20052;-86
2021/12/23 13:10:00;;;;;;;0.20;0.20;;;;;;;;;;5045105;28;20041;-85
2021/12/23 13:12:30;;;;;;;0.20;0.20;;;;;;;;;;5034135;28;20082;-85
2021/12/23 13:15:16;;;;;;;0.20;0.20;;;;;;;;;;5036624;28;20033;-86
2021/12/23 13:18:05;;;;;;;0.20;0.20;;;;;;;;;;5042166;28;20393;-84
2021/12/23 13:20:39;;;;;;;0.20;0.20;;;;;;;;;;5031014;28;20112;-85
2021/12/23 13:23:17;;;;;;;0.20;0.20;;;;;;;;;;5040256;28;20412;-84
2021/12/23 13:25:47;;;;;;;0.20;0.20;;;;;;;;;;5040345;28;20048;-85
2021/12/23 13:28:20;;;;;;;0.20;0.20;;;;;;;;;;5046394;28;20027;-84
2021/12/23 13:30:46;;;;;;;0.20;0.20;;;;;;;;;;5038994;28;20089;-84
2021/12/23 13:33:12;;;;;;;0.20;0.20;;;;;;;;;;5040128;28;20029;-83
2021/12/23 13:35:39;;;;;;;0.20;0.20;;;;;;;;;;5043288;28;20484;-82
2021/12/23 13:38:05;;;;;;;0.20;0.20;;;;;;;;;;5041535;28;20025;-83
2021/12/23 13:40:32;;;;;;;0.20;0.20;;;;;;;;;;5041056;28;20025;-83
2021/12/23 13:42:59;;;;;;;0.20;0.20;;;;;;;;;;5041837;28;20797;-83
2021/12/23 13:45:25;;;;;;;0.20;0.20;;;;;;;;;;5044404;28;20131;-83
2021/12/23 13:47:53;;;;;;;0.20;0.20;;;;;;;;;;5038501;28;20702;-84
2021/12/23 13:50:20;;;;;;;0.20;0.20;;;;;;;;;;5040812;28;20028;-83
2021/12/23 13:52:48;;;;;;;0.20;0.20;;;;;;;;;;5042608;28;20024;-84
2021/12/23 13:55:15;;;;;;;0.20;0.20;;;;;;;;;;5041811;28;20594;-83
2021/12/23 13:57:46;;;;;;;0.20;0.20;;;;;;;;;;5039816;28;20112;-83
2021/12/23 14:00:18;;;;;;;0.20;0.20;;;;;;;;;;5039536;28;20029;-83
2021/12/23 14:02:44;;;;;;;0.20;0.20;;;;;;;;;;5041535;28;20048;-83
2021/12/23 14:05:11;;;;;;;0.20;0.20;;;;;;;;;;5041818;28;20032;-83
2021/12/23 14:07:37;;;;;;;;;;;;;;;;;;5042349;28;20041;-83
2021/12/23 14:10:09;;;;;;;0.20;0.20;;;;;;;;;;5042308;28;19960;-83
2021/12/23 14:12:42;;;;;;;0.20;0.20;;;;;;;;;;5040107;28;20048;-84
2021/12/23 14:15:11;;;;;;;0.20;0.20;;;;;;;;;;5040849;28;20021;-84
2021/12/23 14:17:40;;;;;;;0.20;0.20;;;;;;;;;;5041627;28;20033;-83
2021/12/23 14:23:14;;;;;;;0.20;0.20;;;;;;;;;;4982048;28;20529;-83
2021/12/23 14:25:46;;;;;;;0.20;0.20;;;;;;;;;;4982066;28;20042;-83
2021/12/23 14:28:13;;;;;;;0.20;0.20;;;;;;;;;;4984107;28;20351;-83
2021/12/23 14:30:50;;;;;;;0.20;0.20;;;;;;;;;;4983681;28;20042;-84
2021/12/23 14:33:22;;;;;;;0.20;0.20;;;;;;;;;;4967885;28;20037;-83
2021/12/23 14:35:55;;;;;;;0.20;0.20;;;;;;;;;;4984013;28;20034;-83
2021/12/23 14:38:25;;;;;;;0.30;0.30;;;;;;;;;;4983709;28;20034;-83
2021/12/23 14:41:23;;;;;;;0.20;0.20;;;;;;;;;;4982322;28;20893;-83
2021/12/23 14:43:53;;;;;;;0.20;0.20;;;;;;;;;;4924321;29;20054;-82
2021/12/23 14:46:20;;;;;;;0.20;0.20;;;;;;;;;;4926202;29;20741;-83
2021/12/23 14:49:07;;;;;;;0.20;0.20;;;;;;;;;;4925604;29;20142;-84
2021/12/23 14:51:33;;;;;;;;;;;;;;;;;;4925808;29;20027;-83
2021/12/23 14:54:19;;;;;;;0.20;0.20;;;;;;;;;;4925052;29;19914;-83
2021/12/23 14:56:46;;;;;;;0.20;0.20;;;;;;;;;;4924564;29;20167;-83
2021/12/23 14:59:12;;;;;;;0.28;0.28;;;;;;;;;;4922895;29;20420;-83
2021/12/23 15:02:09;;;;;;;0.20;0.20;;;;;;;;;;4926109;29;20051;-77
2021/12/23 15:04:35;;;;;;;0.20;0.20;;;;;;;;;;4939653;29;20070;-82
2021/12/23 15:07:03;;;;;;;0.20;0.20;;;;;;;;;;4929337;29;20047;-82
2021/12/23 15:09:31;;;;;;;0.20;0.20;;;;;;;;;;4929351;28;20315;-83
2021/12/23 15:12:08;;;;;;;0.20;0.20;;;;;;;;;;4927693;29;20039;-82
2021/12/23 15:14:39;;;;;;;0.20;0.20;;;;;;;;;;4928054;29;20031;-82
2021/12/23 15:17:13;;;;;;;0.20;0.20;;;;;;;;;;4927656;29;20038;-82
2021/12/23 15:19:41;;;;;;;0.30;0.30;;;;;;;;;;4995883;28;20118;-82
2021/12/23 15:22:27;;;;;;;0.20;0.20;;;;;;;;;;5048757;28;20527;-82
2021/12/23 15:25:05;;;;;;;0.30;0.30;;;;;;;;;;5048983;28;20037;-82
2021/12/23 15:27:32;;;;;;;0.20;0.20;;;;;;;;;;5048205;28;20020;-82
2021/12/23 15:30:01;;;;;;;0.20;0.20;;;;;;;;;;5046090;28;20033;-83
2021/12/23 15:32:37;;;;;;;0.20;0.20;;;;;;;;;;5045443;28;20021;-82
2021/12/23 15:35:06;;;;;;;0.20;0.20;;;;;;;;;;5044205;28;20125;-82
2021/12/23 15:37:36;;;;;;;0.30;0.30;;;;;;;;;;5040466;28;20082;-82
2021/12/23 15:40:02;;;;;;;0.20;0.20;;;;;;;;;;5045519;28;20021;-82
2021/12/23 15:42:28;;;;;;;0.20;0.20;;;;;;;;;;5045608;28;20888;-82
2021/12/23 15:44:54;;;;;;;0.20;0.20;;;;;;;;;;5039373;28;20052;-82
2021/12/23 15:47:22;;;;;;;0.28;0.28;;;;;;;;;;5044019;28;20030;-82
2021/12/23 15:49:49;;;;;;;0.20;0.20;;;;;;;;;;5044226;28;20509;-82
2021/12/23 15:52:15;;;;;;;0.20;0.20;;;;;;;;;;5049742;28;20047;-82
2021/12/23 15:54:42;;;;;;;0.28;0.28;;;;;;;;;;5047560;28;20797;-83
2021/12/23 15:57:09;;;;;;;0.30;0.30;;;;;;;;;;5045304;28;20021;-82
2021/12/23 15:59:35;;;;;;;0.30;0.30;;;;;;;;;;5043331;28;20116;-82
2021/12/23 16:02:02;;;;;;;0.30;0.30;;;;;;;;;;5042850;28;20473;-82
2021/12/23 16:04:32;;;;;;;;;;;;;;;;;;5044051;28;20519;-83
2021/12/23 16:07:18;;;;;;;0.30;0.30;;;;;;;;;;5046433;28;19939;-83
2021/12/23 16:09:52;;;;;;;0.30;0.30;;;;;;;;;;5045359;28;20487;-83
2021/12/23 16:12:19;;;;;;;0.20;0.20;;;;;;;;;;5045088;28;20052;-83